Time;durP1;ratioP1;P1;durP2;ratioP2;P2;SDS_P1;SDS_P2;PMS_P1;PMS_P2;Temp;Humidity;BMP_temperature;BMP_pressure;BME280_temperature;BME280_humidity;BME280_pressure;Samples;Min_cycle;Max_cycle;Signal;HPM_P1;HPM_P2
2023/07/25 00:01:01;;;;;;;1.73;1.63;;;25.00;52.20;;;;;;5151509;27;46381;-74
2023/07/25 00:03:28;;;;;;;2.88;1.40;;;25.00;52.20;;;;;;5151395;27;45284;-73
2023/07/25 00:05:55;;;;;;;2.28;1.48;;;25.00;52.10;;;;;;5150988;27;45313;-73
2023/07/25 00:08:22;;;;;;;2.20;1.70;;;24.90;52.20;;;;;;5151587;27;45386;-73
2023/07/25 00:10:49;;;;;;;1.55;1.45;;;24.90;52.10;;;;;;5151285;27;45345;-73
2023/07/25 00:13:16;;;;;;;2.25;1.65;;;24.90;52.10;;;;;;5151587;27;45413;-73
2023/07/25 00:15:42;;;;;;;1.60;1.48;;;24.90;52.10;;;;;;5151276;27;45243;-73
2023/07/25 00:18:11;;;;;;;1.80;1.65;;;24.90;52.20;;;;;;5151981;27;45595;-73
2023/07/25 00:20:37;;;;;;;2.58;1.20;;;24.90;52.20;;;;;;5151296;27;46675;-73
2023/07/25 00:23:04;;;;;;;3.05;1.48;;;24.80;52.10;;;;;;5151279;27;45346;-73
2023/07/25 00:25:31;;;;;;;1.60;1.50;;;24.90;52.20;;;;;;5151569;27;45399;-74
2023/07/25 00:27:58;;;;;;;1.75;1.23;;;24.80;52.10;;;;;;5151524;27;45314;-73
2023/07/25 00:30:25;;;;;;;1.48;1.38;;;24.80;52.10;;;;;;5151042;27;45385;-73
2023/07/25 00:32:52;;;;;;;1.67;1.58;;;24.80;52.00;;;;;;5151256;27;45126;-73
2023/07/25 00:35:20;;;;;;;2.05;1.58;;;24.80;52.00;;;;;;5151187;27;45308;-75
2023/07/25 00:37:47;;;;;;;1.30;1.20;;;24.80;51.90;;;;;;5151527;27;45388;-73
2023/07/25 00:40:14;;;;;;;1.40;1.30;;;24.80;51.90;;;;;;5151393;27;45129;-73
2023/07/25 00:42:41;;;;;;;1.70;1.60;;;24.80;51.80;;;;;;5151106;27;45142;-73
2023/07/25 00:45:09;;;;;;;1.45;1.35;;;24.80;51.90;;;;;;5150731;27;45401;-73
2023/07/25 00:47:36;;;;;;;1.48;1.27;;;24.80;51.80;;;;;;5151231;27;45295;-72
2023/07/25 00:50:03;;;;;;;1.90;1.30;;;24.80;51.90;;;;;;5150119;27;45366;-73
2023/07/25 00:52:31;;;;;;;1.40;1.30;;;24.80;51.80;;;;;;5150165;27;45248;-73
2023/07/25 00:54:58;;;;;;;1.83;1.45;;;24.80;51.80;;;;;;5150752;27;45400;-73
2023/07/25 00:57:25;;;;;;;1.92;1.45;;;24.80;51.80;;;;;;5151115;27;45496;-73
2023/07/25 00:59:52;;;;;;;2.15;1.48;;;24.80;51.80;;;;;;5150277;27;48363;-73
2023/07/25 01:02:18;;;;;;;1.65;1.30;;;24.80;51.80;;;;;;5150807;27;45314;-73
2023/07/25 01:04:45;;;;;;;1.40;1.30;;;24.80;51.80;;;;;;5150491;27;45401;-73
2023/07/25 01:07:12;;;;;;;1.45;1.35;;;24.70;51.70;;;;;;5150923;27;45528;-73
2023/07/25 01:09:41;;;;;;;2.75;1.48;;;24.80;51.70;;;;;;5150297;27;46940;-73
2023/07/25 01:12:08;;;;;;;2.38;1.50;;;24.70;51.70;;;;;;5150474;27;45299;-73
2023/07/25 01:14:35;;;;;;;1.75;1.42;;;24.70;51.70;;;;;;5150853;27;45419;-73
2023/07/25 01:17:03;;;;;;;4.00;1.58;;;24.70;51.60;;;;;;5150973;27;45323;-73
2023/07/25 01:19:30;;;;;;;1.77;1.27;;;24.70;51.60;;;;;;5150401;27;46696;-73
2023/07/25 01:21:58;;;;;;;1.60;1.48;;;24.70;51.60;;;;;;5150196;27;45519;-73
2023/07/25 01:24:26;;;;;;;1.80;1.40;;;24.70;51.60;;;;;;5150296;27;45272;-73
2023/07/25 01:26:53;;;;;;;2.25;1.55;;;24.70;51.60;;;;;;5150377;27;45317;-73
2023/07/25 01:29:20;;;;;;;1.70;1.60;;;24.70;51.60;;;;;;5149931;27;45751;-73
2023/07/25 01:31:47;;;;;;;1.42;1.33;;;24.70;51.60;;;;;;5150521;27;45642;-72
2023/07/25 01:34:13;;;;;;;2.28;1.20;;;24.70;51.60;;;;;;5149979;27;45278;-72
2023/07/25 01:36:40;;;;;;;1.48;1.10;;;24.70;51.60;;;;;;5149810;27;45353;-73
2023/07/25 01:39:07;;;;;;;1.83;1.50;;;24.60;51.60;;;;;;5149803;27;46403;-73
2023/07/25 01:41:35;;;;;;;1.25;1.15;;;24.60;51.60;;;;;;5150331;27;45334;-73
2023/07/25 01:44:02;;;;;;;1.50;1.40;;;24.60;51.60;;;;;;5150004;27;45318;-73
2023/07/25 01:46:29;;;;;;;1.20;1.10;;;24.60;51.50;;;;;;5149996;27;45399;-73
2023/07/25 01:48:56;;;;;;;3.03;1.40;;;24.60;51.60;;;;;;5149711;27;46405;-73
2023/07/25 01:51:22;;;;;;;1.55;1.20;;;24.60;51.50;;;;;;5149640;27;45171;-73
2023/07/25 01:53:50;;;;;;;1.33;1.23;;;24.60;51.50;;;;;;5149866;27;45470;-73
2023/07/25 01:56:17;;;;;;;1.42;1.33;;;24.60;51.60;;;;;;5150041;27;45448;-73
2023/07/25 01:58:45;;;;;;;1.23;1.13;;;24.50;51.40;;;;;;5150067;27;46148;-73
2023/07/25 02:01:12;;;;;;;1.02;1.02;;;24.50;51.50;;;;;;5149627;27;45341;-73
2023/07/25 02:03:39;;;;;;;1.92;1.52;;;24.50;51.50;;;;;;5149639;27;45290;-73
2023/07/25 02:06:06;;;;;;;1.35;1.20;;;24.50;51.40;;;;;;5149744;27;45501;-73
2023/07/25 02:08:33;;;;;;;1.33;1.23;;;24.50;51.40;;;;;;5149456;27;45495;-73
2023/07/25 02:11:00;;;;;;;1.77;1.65;;;24.50;51.40;;;;;;5149333;27;45342;-73
2023/07/25 02:13:26;;;;;;;1.60;1.40;;;24.50;51.40;;;;;;5149268;27;45333;-73
2023/07/25 02:15:55;;;;;;;1.45;1.13;;;24.50;51.40;;;;;;5149898;27;45319;-73
2023/07/25 02:18:21;;;;;;;2.58;1.33;;;24.50;51.40;;;;;;5149600;27;45461;-72
2023/07/25 02:20:48;;;;;;;1.58;1.48;;;24.50;51.40;;;;;;5147862;27;45508;-73
2023/07/25 02:23:15;;;;;;;2.47;1.30;;;24.50;51.40;;;;;;5149448;27;45341;-73
2023/07/25 02:25:42;;;;;;;1.30;1.20;;;24.40;51.90;;;;;;5149604;27;45402;-73
2023/07/25 02:28:09;;;;;;;1.20;1.10;;;24.40;51.30;;;;;;5149012;27;46650;-73
2023/07/25 02:30:36;;;;;;;1.42;1.33;;;24.40;51.20;;;;;;5149243;27;45312;-73
2023/07/25 02:33:04;;;;;;;2.00;1.17;;;24.40;51.20;;;;;;5149180;27;45328;-73
2023/07/25 02:35:31;;;;;;;2.83;1.30;;;24.40;51.20;;;;;;5146654;27;45363;-73
2023/07/25 02:37:58;;;;;;;1.40;1.15;;;24.40;51.20;;;;;;5148969;27;46387;-73
2023/07/25 02:40:25;;;;;;;1.52;1.10;;;24.40;51.30;;;;;;5149181;27;45276;-73
2023/07/25 02:42:52;;;;;;;1.25;1.15;;;24.30;51.20;;;;;;5149304;27;45393;-73
2023/07/25 02:45:19;;;;;;;1.38;1.17;;;24.30;51.20;;;;;;5149014;27;45356;-73
2023/07/25 02:47:46;;;;;;;1.65;1.35;;;24.30;51.20;;;;;;5148571;27;45309;-73
2023/07/25 02:50:14;;;;;;;3.08;1.52;;;24.30;51.30;;;;;;5148898;27;45250;-73
2023/07/25 02:52:42;;;;;;;1.48;1.20;;;24.30;51.20;;;;;;5148967;27;45316;-73
2023/07/25 02:55:09;;;;;;;1.30;1.20;;;24.30;51.20;;;;;;5128132;27;45446;-73
2023/07/25 02:57:36;;;;;;;1.23;1.10;;;24.30;51.20;;;;;;5127754;27;45303;-73
2023/07/25 03:00:03;;;;;;;1.02;1.02;;;24.30;51.20;;;;;;5127909;27;45277;-73
2023/07/25 03:02:30;;;;;;;1.48;1.30;;;24.30;51.20;;;;;;5128002;27;45382;-73
2023/07/25 03:04:57;;;;;;;1.10;1.10;;;24.30;51.30;;;;;;5127241;27;45460;-73
2023/07/25 03:07:25;;;;;;;1.13;1.02;;;24.20;51.20;;;;;;5127613;27;46366;-73
2023/07/25 03:09:52;;;;;;;1.45;1.33;;;24.20;51.20;;;;;;5127629;27;45307;-74
2023/07/25 03:12:19;;;;;;;2.50;1.23;;;24.20;51.80;;;;;;5127962;27;45249;-74
2023/07/25 03:14:46;;;;;;;1.20;1.10;;;24.20;51.80;;;;;;5128010;27;45354;-74
2023/07/25 03:17:13;;;;;;;1.38;1.27;;;24.20;51.10;;;;;;5127594;27;46625;-74
2023/07/25 03:19:40;;;;;;;0.95;0.90;;;24.20;51.70;;;;;;5127553;27;45396;-74
2023/07/25 03:22:07;;;;;;;1.40;1.17;;;24.10;51.10;;;;;;5127858;27;45270;-74
2023/07/25 03:24:35;;;;;;;1.13;1.08;;;24.10;51.10;;;;;;5127888;27;45261;-74
2023/07/25 03:27:02;;;;;;;1.10;1.00;;;24.10;51.10;;;;;;5127467;27;45479;-74
2023/07/25 03:29:29;;;;;;;1.27;1.17;;;24.10;51.10;;;;;;5124869;27;45386;-74
2023/07/25 03:31:56;;;;;;;1.23;1.13;;;24.10;51.10;;;;;;5127651;27;45268;-74
2023/07/25 03:34:23;;;;;;;1.42;1.10;;;24.10;51.10;;;;;;5127324;27;45252;-74
2023/07/25 03:36:50;;;;;;;1.42;1.17;;;24.10;51.20;;;;;;5127114;27;45317;-74
2023/07/25 03:39:17;;;;;;;1.17;1.08;;;24.10;51.10;;;;;;5127364;27;45541;-74
2023/07/25 03:41:45;;;;;;;1.40;1.30;;;24.10;51.20;;;;;;5127374;27;45290;-74
2023/07/25 03:44:16;;;;;;;1.23;1.13;;;24.10;51.20;;;;;;5127682;27;45419;-74
2023/07/25 03:46:43;;;;;;;1.88;1.15;;;24.10;51.20;;;;;;5127260;27;45471;-74
2023/07/25 03:49:10;;;;;;;2.10;1.20;;;24.00;51.10;;;;;;5127259;27;45310;-73
2023/07/25 03:51:37;;;;;;;1.25;1.15;;;24.10;51.20;;;;;;5126915;27;45352;-74
2023/07/25 03:54:04;;;;;;;1.95;1.17;;;24.00;51.20;;;;;;5138573;27;45512;-73
2023/07/25 03:56:31;;;;;;;1.02;1.02;;;24.00;51.20;;;;;;5147814;27;46351;-74
2023/07/25 03:58:59;;;;;;;1.17;1.08;;;24.00;51.20;;;;;;5148125;27;45330;-74
2023/07/25 04:01:26;;;;;;;1.13;1.02;;;24.00;51.20;;;;;;5147888;27;45272;-74
2023/07/25 04:03:53;;;;;;;2.42;1.30;;;24.00;51.10;;;;;;5148894;27;45309;-73
2023/07/25 04:06:20;;;;;;;1.40;1.23;;;24.00;51.20;;;;;;5147884;27;45473;-74
2023/07/25 04:08:47;;;;;;;1.85;1.27;;;24.00;51.20;;;;;;5147770;27;45305;-74
2023/07/25 04:11:14;;;;;;;1.77;1.13;;;24.00;51.10;;;;;;5148245;27;45473;-74
2023/07/25 04:13:41;;;;;;;1.20;1.10;;;24.00;51.10;;;;;;5148031;27;45353;-73
2023/07/25 04:16:09;;;;;;;1.20;1.10;;;24.00;51.10;;;;;;5147898;27;47919;-74
2023/07/25 04:18:36;;;;;;;3.30;1.45;;;24.00;51.10;;;;;;5147959;27;45394;-75
2023/07/25 04:21:03;;;;;;;1.30;1.20;;;24.00;51.10;;;;;;5147947;27;45333;-73
2023/07/25 04:23:29;;;;;;;2.35;1.20;;;23.90;51.10;;;;;;5147794;27;45399;-74
2023/07/25 04:25:56;;;;;;;2.38;1.20;;;23.90;51.00;;;;;;5147588;27;45302;-74
2023/07/25 04:28:23;;;;;;;1.10;1.00;;;24.00;51.10;;;;;;5147663;27;45278;-74
2023/07/25 04:30:50;;;;;;;2.05;1.20;;;23.90;51.00;;;;;;5147851;27;45305;-74
2023/07/25 04:33:18;;;;;;;2.05;1.20;;;23.90;51.00;;;;;;5147535;27;45340;-72
2023/07/25 04:35:46;;;;;;;1.00;1.00;;;23.90;51.00;;;;;;5146755;27;45388;-74
2023/07/25 04:38:13;;;;;;;0.90;0.90;;;23.90;50.90;;;;;;5147559;27;45322;-74
2023/07/25 04:40:40;;;;;;;1.73;1.05;;;24.00;51.00;;;;;;5147612;27;45268;-74
2023/07/25 04:43:07;;;;;;;1.65;1.35;;;23.90;50.90;;;;;;5148181;27;45392;-74
2023/07/25 04:45:34;;;;;;;1.15;1.02;;;23.90;51.50;;;;;;5150929;27;46624;-73
2023/07/25 04:48:01;;;;;;;0.95;0.85;;;23.90;50.90;;;;;;5151025;27;45297;-74
2023/07/25 04:50:29;;;;;;;1.17;1.08;;;23.90;50.80;;;;;;5151098;27;45322;-73
2023/07/25 04:52:56;;;;;;;1.08;1.05;;;24.00;50.90;;;;;;5150894;27;45426;-73
2023/07/25 04:55:23;;;;;;;1.20;1.10;;;23.90;50.80;;;;;;5151007;27;46378;-73
2023/07/25 04:57:50;;;;;;;1.55;1.08;;;23.90;50.80;;;;;;5151178;27;45430;-73
2023/07/25 05:00:17;;;;;;;1.15;1.05;;;23.90;50.80;;;;;;5151189;27;45377;-73
2023/07/25 05:02:44;;;;;;;1.30;1.20;;;23.90;50.80;;;;;;5151357;27;45493;-73
2023/07/25 05:05:10;;;;;;;1.33;1.20;;;23.90;50.80;;;;;;5150551;27;46604;-73
2023/07/25 05:07:39;;;;;;;1.02;1.02;;;23.90;50.70;;;;;;5150980;27;45281;-73
2023/07/25 05:10:07;;;;;;;1.30;1.20;;;23.90;50.70;;;;;;5150771;27;45315;-73
2023/07/25 05:12:33;;;;;;;1.17;1.08;;;23.90;50.60;;;;;;5151056;27;45415;-73
2023/07/25 05:15:00;;;;;;;1.58;1.10;;;23.90;50.70;;;;;;5150521;27;45594;-73
2023/07/25 05:17:27;;;;;;;0.85;0.85;;;23.90;50.70;;;;;;5150721;27;45315;-73
2023/07/25 05:19:54;;;;;;;1.23;0.90;;;23.90;50.70;;;;;;5150176;27;45299;-73
2023/07/25 05:22:21;;;;;;;1.65;1.10;;;23.90;50.60;;;;;;5150671;27;45584;-73
2023/07/25 05:24:49;;;;;;;1.20;1.10;;;23.90;50.70;;;;;;5147767;27;45376;-73
2023/07/25 05:27:16;;;;;;;1.20;1.00;;;23.90;50.70;;;;;;5150704;27;45306;-74
2023/07/25 05:29:43;;;;;;;1.98;1.00;;;23.90;50.60;;;;;;5150531;27;45289;-73
2023/07/25 05:32:10;;;;;;;0.98;0.90;;;23.90;50.50;;;;;;5150783;27;45478;-74
2023/07/25 05:34:37;;;;;;;1.20;1.10;;;23.90;50.60;;;;;;5150264;27;45244;-74
2023/07/25 05:37:04;;;;;;;1.25;0.80;;;23.90;50.70;;;;;;5150738;27;45352;-73
2023/07/25 05:39:31;;;;;;;1.00;0.90;;;23.90;50.60;;;;;;5150581;27;45334;-73
2023/07/25 05:41:59;;;;;;;1.13;1.02;;;23.90;50.50;;;;;;5150488;27;45402;-74
2023/07/25 05:44:26;;;;;;;1.25;1.15;;;23.90;50.60;;;;;;5149974;27;46619;-74
2023/07/25 05:46:53;;;;;;;0.90;0.90;;;23.90;51.20;;;;;;5150475;27;45385;-73
2023/07/25 05:49:20;;;;;;;2.63;1.00;;;23.90;50.60;;;;;;5150587;27;45401;-72
2023/07/25 05:51:47;;;;;;;1.58;0.93;;;23.90;51.20;;;;;;5150464;27;45572;-73
2023/07/25 05:54:15;;;;;;;1.42;1.10;;;23.90;50.60;;;;;;5150064;27;46483;-72
2023/07/25 05:56:42;;;;;;;0.95;0.88;;;23.90;50.60;;;;;;5149594;27;45260;-72
2023/07/25 05:59:10;;;;;;;1.45;0.90;;;23.90;50.50;;;;;;5150332;27;45410;-72
2023/07/25 06:01:39;;;;;;;1.10;0.93;;;23.90;50.50;;;;;;5150485;27;45398;-72
2023/07/25 06:04:06;;;;;;;1.45;1.30;;;23.90;50.50;;;;;;5149431;27;45805;-73
2023/07/25 06:06:33;;;;;;;1.48;1.20;;;23.90;50.60;;;;;;5149642;27;45448;-72
2023/07/25 06:08:59;;;;;;;1.10;1.00;;;23.90;50.60;;;;;;5150232;27;45316;-73
2023/07/25 06:11:26;;;;;;;0.95;0.95;;;23.90;50.50;;;;;;5150192;27;45553;-73
2023/07/25 06:13:54;;;;;;;0.90;0.88;;;23.90;50.50;;;;;;5149402;27;46393;-73
2023/07/25 06:16:22;;;;;;;0.90;0.90;;;23.90;50.50;;;;;;5149684;27;45302;-73
2023/07/25 06:18:49;;;;;;;1.00;1.00;;;23.90;50.50;;;;;;5149854;27;45317;-73
2023/07/25 06:21:16;;;;;;;2.38;1.00;;;23.90;50.40;;;;;;5149800;27;45269;-73
2023/07/25 06:23:42;;;;;;;0.93;0.90;;;23.90;50.30;;;;;;5150286;27;46474;-73
2023/07/25 06:26:09;;;;;;;1.10;1.00;;;23.90;50.50;;;;;;5149434;27;45391;-73
2023/07/25 06:28:36;;;;;;;0.98;0.77;;;23.90;50.30;;;;;;5149605;27;45378;-73
2023/07/25 06:31:03;;;;;;;1.02;0.98;;;23.90;50.30;;;;;;5149787;27;45325;-73
2023/07/25 06:33:31;;;;;;;1.20;1.10;;;23.90;50.40;;;;;;5149047;27;45797;-74
2023/07/25 06:35:58;;;;;;;1.05;0.95;;;23.90;50.30;;;;;;5149184;27;45312;-73
2023/07/25 06:38:25;;;;;;;0.90;0.90;;;23.90;50.30;;;;;;5149485;27;45339;-74
2023/07/25 06:40:52;;;;;;;1.80;1.00;;;23.90;50.30;;;;;;5149880;27;45263;-75
2023/07/25 06:43:19;;;;;;;1.17;1.08;;;24.00;50.30;;;;;;5149248;27;45349;-75
2023/07/25 06:45:46;;;;;;;2.47;1.00;;;24.00;50.40;;;;;;5149280;27;45269;-75
2023/07/25 06:48:13;;;;;;;2.58;1.23;;;24.00;50.40;;;;;;5149403;27;45388;-74
2023/07/25 06:50:41;;;;;;;1.20;1.10;;;24.00;50.30;;;;;;5148875;27;45365;-74
2023/07/25 06:53:08;;;;;;;1.10;0.90;;;24.00;50.40;;;;;;5148729;27;46452;-74
2023/07/25 06:55:35;;;;;;;1.33;1.20;;;24.00;50.30;;;;;;5149076;27;45266;-74
2023/07/25 06:58:02;;;;;;;1.00;0.80;;;24.00;50.30;;;;;;5149525;27;45366;-74
2023/07/25 07:00:29;;;;;;;0.93;0.85;;;24.00;50.30;;;;;;5149301;27;45276;-75
2023/07/25 07:02:56;;;;;;;0.77;0.77;;;24.00;50.30;;;;;;5149073;27;45355;-75
2023/07/25 07:05:23;;;;;;;1.85;1.00;;;24.00;50.30;;;;;;5148627;27;45344;-75
2023/07/25 07:07:53;;;;;;;1.38;1.08;;;24.00;50.20;;;;;;5148852;27;45360;-75
2023/07/25 07:10:19;;;;;;;1.27;1.00;;;24.00;50.40;;;;;;5149085;27;45214;-74
2023/07/25 07:12:47;;;;;;;0.80;0.80;;;24.10;50.40;;;;;;5148901;27;46388;-76
2023/07/25 07:15:15;;;;;;;1.33;1.05;;;24.10;50.30;;;;;;5149106;27;45367;-75
2023/07/25 07:17:42;;;;;;;1.15;0.77;;;24.10;50.20;;;;;;5149101;27;45311;-75
2023/07/25 07:20:10;;;;;;;1.90;0.98;;;24.10;50.10;;;;;;5148834;27;45233;-75
2023/07/25 07:22:37;;;;;;;2.47;1.00;;;24.10;50.50;;;;;;5148823;27;45565;-75
2023/07/25 07:25:07;;;;;;;1.23;1.00;;;24.10;50.10;;;;;;5149250;27;45342;-75
2023/07/25 07:27:34;;;;;;;0.80;0.75;;;24.10;50.10;;;;;;5149332;27;45358;-73
2023/07/25 07:30:00;;;;;;;0.80;0.80;;;24.10;50.10;;;;;;5149214;27;45209;-74
2023/07/25 07:32:27;;;;;;;1.85;1.02;;;24.10;50.20;;;;;;5148822;27;45272;-73
2023/07/25 07:34:54;;;;;;;0.93;0.93;;;24.20;50.20;;;;;;5148413;27;45260;-75
2023/07/25 07:37:21;;;;;;;1.65;0.95;;;24.20;50.70;;;;;;5149206;27;45321;-76
2023/07/25 07:39:48;;;;;;;0.80;0.80;;;24.20;50.10;;;;;;5149609;27;45372;-76
2023/07/25 07:42:16;;;;;;;1.10;1.00;;;24.20;50.50;;;;;;5149986;27;45534;-76
2023/07/25 07:44:43;;;;;;;0.82;0.82;;;24.20;50.00;;;;;;5149823;27;45299;-75
2023/07/25 07:47:10;;;;;;;1.13;1.00;;;24.30;49.80;;;;;;5149079;27;45240;-75
2023/07/25 07:49:37;;;;;;;0.98;0.98;;;24.30;50.10;;;;;;5148685;27;45399;-76
2023/07/25 07:52:04;;;;;;;0.90;0.85;;;24.30;50.00;;;;;;5147847;27;45447;-75
2023/07/25 07:54:32;;;;;;;1.52;1.10;;;24.30;50.00;;;;;;5147502;27;45332;-73
2023/07/25 07:56:59;;;;;;;3.00;1.40;;;24.30;50.70;;;;;;5148183;27;45252;-73
2023/07/25 07:59:28;;;;;;;1.02;1.02;;;24.20;52.30;;;;;;5148138;27;45422;-73
2023/07/25 08:01:55;;;;;;;2.67;1.15;;;24.10;52.40;;;;;;5144825;27;46174;-73
2023/07/25 08:04:21;;;;;;;2.30;1.20;;;24.10;52.60;;;;;;5147736;27;45469;-74
2023/07/25 08:06:48;;;;;;;2.38;1.13;;;24.10;53.00;;;;;;5147833;27;45324;-75
2023/07/25 08:09:15;;;;;;;2.30;1.55;;;24.10;52.30;;;;;;5148096;27;45430;-74
2023/07/25 08:11:42;;;;;;;2.55;1.20;;;24.10;52.20;;;;;;5147868;27;46598;-74
2023/07/25 08:14:09;;;;;;;2.15;1.15;;;24.10;52.30;;;;;;5147697;27;45352;-74
2023/07/25 08:16:37;;;;;;;2.55;1.38;;;24.20;52.30;;;;;;5147978;27;45292;-74
2023/07/25 08:19:04;;;;;;;3.25;1.20;;;24.20;52.40;;;;;;5149580;27;45394;-72
2023/07/25 08:21:31;;;;;;;1.88;1.20;;;24.20;52.50;;;;;;5150703;27;45248;-74
2023/07/25 08:23:58;;;;;;;2.58;1.15;;;24.30;52.40;;;;;;5150709;27;45408;-74
2023/07/25 08:26:25;;;;;;;1.23;1.10;;;24.30;52.30;;;;;;5151241;27;45350;-74
2023/07/25 08:28:52;;;;;;;2.83;1.90;;;24.30;52.40;;;;;;5151457;27;45331;-74
2023/07/25 08:31:18;;;;;;;1.52;1.08;;;24.30;52.40;;;;;;5150363;27;47410;-74
2023/07/25 08:33:46;;;;;;;3.08;1.20;;;24.30;52.20;;;;;;5150656;27;45257;-74
2023/07/25 08:36:13;;;;;;;3.47;1.08;;;24.30;52.60;;;;;;5151309;27;45308;-73
2023/07/25 08:38:41;;;;;;;3.00;1.00;;;24.30;52.40;;;;;;5151501;27;45442;-74
2023/07/25 08:41:10;;;;;;;6.18;1.10;;;24.30;52.00;;;;;;5150997;27;46920;-74
2023/07/25 08:43:38;;;;;;;6.55;1.50;;;24.30;52.10;;;;;;5150998;27;45326;-74
2023/07/25 08:46:06;;;;;;;3.28;1.38;;;24.40;52.50;;;;;;5150975;27;45412;-74
2023/07/25 08:48:33;;;;;;;1.88;1.30;;;24.40;52.30;;;;;;5151220;27;45291;-74
2023/07/25 08:51:01;;;;;;;2.63;1.35;;;24.40;52.20;;;;;;5150745;27;46289;-73
2023/07/25 08:53:28;;;;;;;2.17;1.15;;;24.40;52.10;;;;;;5150533;27;45424;-74
2023/07/25 08:55:55;;;;;;;4.20;1.20;;;24.50;51.80;;;;;;5150933;27;45467;-75
2023/07/25 08:58:22;;;;;;;3.30;1.85;;;24.50;51.70;;;;;;5151008;27;45460;-74
2023/07/25 09:00:49;;;;;;;3.20;1.30;;;24.60;51.60;;;;;;5149877;27;45289;-73
2023/07/25 09:03:16;;;;;;;1.55;1.25;;;24.60;51.40;;;;;;5150485;27;45332;-73
2023/07/25 09:05:43;;;;;;;2.70;1.30;;;24.70;51.30;;;;;;5150191;27;45310;-73
2023/07/25 09:08:11;;;;;;;3.80;1.42;;;24.70;51.30;;;;;;5150522;27;45368;-74
2023/07/25 09:10:38;;;;;;;2.55;1.02;;;24.70;51.30;;;;;;5150437;27;45506;-73
2023/07/25 09:13:05;;;;;;;2.75;1.00;;;24.70;51.40;;;;;;5150716;27;45327;-73
2023/07/25 09:15:31;;;;;;;3.53;0.95;;;24.70;51.40;;;;;;5150565;27;45267;-73
2023/07/25 09:17:58;;;;;;;3.17;1.13;;;24.70;51.40;;;;;;5150994;27;45322;-73
2023/07/25 09:20:25;;;;;;;3.17;1.00;;;24.70;51.50;;;;;;5150491;27;46414;-73
2023/07/25 09:22:52;;;;;;;1.35;1.00;;;24.80;51.40;;;;;;5150554;27;45386;-72
2023/07/25 09:25:20;;;;;;;1.38;0.90;;;24.80;51.40;;;;;;5150873;27;45337;-75
2023/07/25 09:27:47;;;;;;;2.63;1.42;;;24.80;51.10;;;;;;5150592;27;45309;-75
2023/07/25 09:30:15;;;;;;;1.48;0.90;;;24.80;51.20;;;;;;5149510;27;46685;-72
2023/07/25 09:32:45;;;;;;;4.10;1.15;;;24.80;51.50;;;;;;5150572;27;45380;-73
2023/07/25 09:35:12;;;;;;;3.17;1.20;;;24.90;51.60;;;;;;5150331;27;45275;-73
2023/07/25 09:37:39;;;;;;;1.48;0.80;;;24.80;52.40;;;;;;5150667;27;45551;-73
2023/07/25 09:40:09;;;;;;;1.83;1.00;;;24.90;51.80;;;;;;5150061;27;46341;-73
2023/07/25 09:42:39;;;;;;;3.03;1.20;;;24.90;51.90;;;;;;5150322;27;45297;-73
2023/07/25 09:45:08;;;;;;;1.20;1.10;;;24.90;51.80;;;;;;5150173;27;45378;-73
2023/07/25 09:47:36;;;;;;;3.42;1.10;;;25.00;51.90;;;;;;5150356;27;45187;-73
2023/07/25 09:50:03;;;;;;;1.33;1.10;;;24.90;51.80;;;;;;5149847;27;45293;-72
2023/07/25 09:52:40;;;;;;;3.30;1.25;;;25.00;51.70;;;;;;5149396;27;45351;-73
2023/07/25 09:55:07;;;;;;;1.77;1.23;;;25.00;51.70;;;;;;5149764;27;45339;-73
2023/07/25 09:57:34;;;;;;;1.73;1.10;;;25.00;51.60;;;;;;5150386;27;45400;-73
2023/07/25 10:00:04;;;;;;;2.97;1.20;;;25.00;51.50;;;;;;5149588;27;45733;-73
2023/07/25 10:02:32;;;;;;;1.73;0.95;;;25.10;51.50;;;;;;5150062;27;45388;-73
2023/07/25 10:04:59;;;;;;;1.20;0.93;;;25.10;51.50;;;;;;5150604;27;45330;-73
2023/07/25 10:07:26;;;;;;;1.92;1.00;;;25.10;51.30;;;;;;5151556;27;45283;-73
2023/07/25 10:09:52;;;;;;;1.40;1.00;;;25.10;51.20;;;;;;5150239;27;46737;-73
2023/07/25 10:12:19;;;;;;;1.88;1.00;;;25.20;51.20;;;;;;5149565;27;45458;-73
2023/07/25 10:14:46;;;;;;;2.97;1.00;;;25.20;51.10;;;;;;5150090;27;45368;-74
2023/07/25 10:17:14;;;;;;;0.80;0.80;;;25.30;51.00;;;;;;5150874;27;45401;-74
2023/07/25 10:19:48;;;;;;;1.13;0.82;;;25.30;51.00;;;;;;5150437;27;46661;-75
2023/07/25 10:22:15;;;;;;;2.03;1.10;;;25.30;50.90;;;;;;5150524;27;45364;-74
2023/07/25 10:24:42;;;;;;;1.10;1.00;;;25.30;50.90;;;;;;5150352;27;45359;-72
2023/07/25 10:27:10;;;;;;;1.50;0.80;;;25.40;50.80;;;;;;5149311;27;45675;-73
2023/07/25 10:29:38;;;;;;;1.48;1.10;;;25.40;50.70;;;;;;5149230;27;45805;-74
2023/07/25 10:32:06;;;;;;;1.00;0.90;;;25.40;50.60;;;;;;5149378;27;45461;-73
2023/07/25 10:34:50;;;;;;;1.50;1.00;;;25.50;50.60;;;;;;5149440;27;45340;-73
2023/07/25 10:37:24;;;;;;;1.48;1.17;;;25.50;50.50;;;;;;5149772;27;45318;-73
2023/07/25 10:40:20;;;;;;;1.33;1.08;;;25.50;50.40;;;;;;5149389;27;45313;-74
2023/07/25 10:42:51;;;;;;;0.88;0.88;;;25.60;50.40;;;;;;5100532;27;45273;-73
2023/07/25 10:45:39;;;;;;;1.20;0.90;;;25.60;50.30;;;;;;5148842;27;45404;-72
2023/07/25 10:48:06;;;;;;;1.80;1.02;;;25.60;50.30;;;;;;5149360;27;45269;-74
2023/07/25 10:50:53;;;;;;;0.80;0.80;;;25.60;50.40;;;;;;5148192;27;45678;-73
2023/07/25 10:53:21;;;;;;;1.42;0.90;;;25.60;50.50;;;;;;5148501;27;45525;-74
2023/07/25 10:56:15;;;;;;;1.90;1.20;;;25.60;50.50;;;;;;5149230;27;45607;-74
2023/07/25 10:59:04;;;;;;;0.90;0.80;;;25.70;50.50;;;;;;5149215;27;45311;-74
2023/07/25 11:01:50;;;;;;;2.70;0.90;;;25.70;50.30;;;;;;5148828;27;46593;-74
2023/07/25 11:04:23;;;;;;;2.20;0.93;;;25.70;50.30;;;;;;5148963;27;45307;-74
2023/07/25 11:06:52;;;;;;;1.00;0.90;;;25.80;50.20;;;;;;5149290;27;45253;-74
2023/07/25 11:09:19;;;;;;;1.15;1.00;;;25.90;50.20;;;;;;5148932;27;45458;-74
2023/07/25 11:11:47;;;;;;;3.47;1.10;;;25.90;50.00;;;;;;5148887;27;45723;-73
2023/07/25 11:14:15;;;;;;;1.10;0.88;;;26.00;50.00;;;;;;5148693;27;45485;-74
2023/07/25 11:16:42;;;;;;;2.30;0.98;;;26.00;49.90;;;;;;5149093;27;45289;-74
2023/07/25 11:19:09;;;;;;;1.50;0.98;;;26.00;49.90;;;;;;5148993;27;45272;-74
2023/07/25 11:21:40;;;;;;;1.00;0.70;;;26.00;49.80;;;;;;5147906;27;45457;-74
2023/07/25 11:24:08;;;;;;;0.80;0.80;;;26.00;49.90;;;;;;5147809;27;45313;-74
2023/07/25 11:26:37;;;;;;;1.00;0.90;;;26.00;49.90;;;;;;5148662;27;45339;-74
2023/07/25 11:29:04;;;;;;;1.45;1.00;;;26.10;49.80;;;;;;5148700;27;45484;-74
2023/07/25 11:31:31;;;;;;;0.80;0.80;;;26.10;49.70;;;;;;5148429;27;45491;-74
2023/07/25 11:34:19;;;;;;;1.08;0.73;;;26.10;49.70;;;;;;5148623;27;45325;-74
2023/07/25 11:36:45;;;;;;;1.52;1.20;;;26.10;49.80;;;;;;5148809;27;45338;-74
2023/07/25 11:39:14;;;;;;;1.50;1.10;;;26.10;49.80;;;;;;5148509;27;45311;-74
2023/07/25 11:41:41;;;;;;;1.38;0.90;;;26.10;49.90;;;;;;5148490;27;46302;-74
2023/07/25 11:44:11;;;;;;;1.55;0.90;;;26.10;49.90;;;;;;5148221;27;45310;-74
2023/07/25 11:46:38;;;;;;;1.95;0.80;;;26.10;49.90;;;;;;5148480;27;45404;-74
2023/07/25 11:49:05;;;;;;;0.93;0.80;;;26.00;49.80;;;;;;5148483;27;45396;-74
2023/07/25 11:51:32;;;;;;;1.13;0.80;;;26.00;49.90;;;;;;5148197;27;46724;-74
2023/07/25 11:53:59;;;;;;;0.90;0.77;;;26.00;49.90;;;;;;5150145;27;45291;-74
2023/07/25 11:56:27;;;;;;;0.93;0.80;;;26.00;50.00;;;;;;5149553;27;45402;-74
2023/07/25 11:58:54;;;;;;;0.98;0.98;;;26.00;50.00;;;;;;5152355;27;45444;-74
2023/07/25 12:01:26;;;;;;;0.85;0.70;;;26.00;50.10;;;;;;5138116;27;45513;-75
2023/07/25 12:03:53;;;;;;;0.90;0.85;;;25.90;50.00;;;;;;5131006;27;45338;-74
2023/07/25 12:06:27;;;;;;;1.00;0.82;;;25.90;50.20;;;;;;5131471;27;45303;-74
2023/07/25 12:08:54;;;;;;;0.90;0.90;;;25.80;50.20;;;;;;5131286;27;45477;-74
2023/07/25 12:11:21;;;;;;;1.13;0.80;;;25.80;50.30;;;;;;5130681;27;46519;-75
2023/07/25 12:13:49;;;;;;;5.30;0.85;;;25.80;50.40;;;;;;5130726;27;45314;-74
2023/07/25 12:16:30;;;;;;;1.40;1.00;;;25.80;50.40;;;;;;5131188;27;45451;-74
2023/07/25 12:18:58;;;;;;;1.05;0.82;;;25.80;50.40;;;;;;5131142;27;45238;-74
2023/07/25 12:21:28;;;;;;;0.95;0.80;;;25.80;50.40;;;;;;5130826;27;47276;-74
2023/07/25 12:23:57;;;;;;;1.00;0.90;;;25.70;50.90;;;;;;5130137;27;45378;-72
2023/07/25 12:26:24;;;;;;;2.10;0.90;;;25.70;50.40;;;;;;5132363;27;45288;-73
2023/07/25 12:28:52;;;;;;;0.90;0.90;;;25.70;50.40;;;;;;5148925;27;45334;-74
2023/07/25 12:31:19;;;;;;;1.20;1.00;;;25.70;50.40;;;;;;5151001;27;46510;-74
2023/07/25 12:33:47;;;;;;;1.52;0.90;;;25.70;50.30;;;;;;5151518;27;45347;-74
2023/07/25 12:36:14;;;;;;;2.15;0.70;;;25.70;50.20;;;;;;5151697;27;45232;-74
2023/07/25 12:38:41;;;;;;;0.70;0.63;;;25.80;50.20;;;;;;5151832;27;45458;-75
2023/07/25 12:41:08;;;;;;;0.80;0.80;;;25.80;50.00;;;;;;5150722;27;46381;-74
2023/07/25 12:43:35;;;;;;;0.73;0.70;;;25.90;49.80;;;;;;5151125;27;45368;-74
2023/07/25 12:46:03;;;;;;;0.93;0.77;;;25.90;49.80;;;;;;5151585;27;45335;-74
2023/07/25 12:48:30;;;;;;;0.73;0.73;;;25.90;49.60;;;;;;5151625;27;45430;-73
2023/07/25 12:50:58;;;;;;;0.70;0.70;;;26.00;49.50;;;;;;5151139;27;46369;-74